Time;durP1;ratioP1;P1;durP2;ratioP2;P2;SDS_P1;SDS_P2;PMS_P1;PMS_P2;Temp;Humidity;BMP_temperature;BMP_pressure;BME280_temperature;BME280_humidity;BME280_pressure;Samples;Min_cycle;Max_cycle;Signal;HPM_P1;HPM_P2
2023/08/29 00:01:56;;;;;;;2.90;1.55;;;13.60;99.90;;;;;;5042562;28;20470;-73
2023/08/29 00:04:21;;;;;;;5.07;2.80;;;13.60;99.90;;;;;;5024629;28;20053;-73
2023/08/29 00:06:47;;;;;;;4.95;1.92;;;13.60;99.90;;;;;;5042600;28;20033;-74
2023/08/29 00:09:12;;;;;;;3.47;1.77;;;13.60;99.90;;;;;;5041825;28;20041;-73
2023/08/29 00:11:38;;;;;;;3.95;1.88;;;13.50;99.90;;;;;;5041491;28;20032;-74
2023/08/29 00:14:04;;;;;;;4.38;1.85;;;13.60;99.90;;;;;;5041173;28;20041;-73
2023/08/29 00:16:29;;;;;;;5.55;2.08;;;13.50;99.90;;;;;;5041993;28;20071;-73
2023/08/29 00:18:55;;;;;;;4.97;2.03;;;13.50;99.90;;;;;;5042465;28;20497;-73
2023/08/29 00:21:20;;;;;;;4.13;1.95;;;13.60;99.90;;;;;;5042097;28;20041;-73
2023/08/29 00:23:48;;;;;;;3.15;2.20;;;13.50;99.90;;;;;;5041665;28;20578;-73
2023/08/29 00:26:13;;;;;;;3.17;1.92;;;13.50;99.90;;;;;;5042177;28;20041;-73
2023/08/29 00:28:40;;;;;;;2.53;1.80;;;13.50;99.90;;;;;;5041279;28;20052;-74
2023/08/29 00:31:06;;;;;;;3.67;1.92;;;13.50;99.90;;;;;;5042624;28;20052;-73
2023/08/29 00:33:32;;;;;;;2.88;1.90;;;13.40;99.90;;;;;;5040188;28;20132;-73
2023/08/29 00:35:57;;;;;;;2.95;1.88;;;13.50;99.90;;;;;;5041455;28;20041;-73
2023/08/29 00:38:23;;;;;;;4.22;1.58;;;13.40;99.90;;;;;;5028606;28;20041;-73
2023/08/29 00:40:49;;;;;;;3.28;1.95;;;13.50;99.90;;;;;;5042519;28;20064;-73
2023/08/29 00:43:14;;;;;;;4.75;1.88;;;13.50;99.90;;;;;;5040681;28;20430;-73
2023/08/29 00:45:40;;;;;;;4.28;1.60;;;13.50;99.90;;;;;;5041680;28;20040;-74
2023/08/29 00:48:08;;;;;;;2.35;1.90;;;13.40;99.90;;;;;;5042771;28;20420;-73
2023/08/29 00:50:34;;;;;;;2.17;1.63;;;13.40;99.90;;;;;;5041102;28;20095;-73
2023/08/29 00:53:04;;;;;;;3.92;2.42;;;13.40;99.90;;;;;;5023648;28;20055;-73
2023/08/29 00:55:31;;;;;;;3.53;1.40;;;13.40;99.90;;;;;;5042488;28;20115;-73
2023/08/29 00:57:57;;;;;;;3.78;1.63;;;13.40;99.90;;;;;;5026476;28;20132;-73
2023/08/29 01:00:26;;;;;;;3.88;1.60;;;13.30;99.90;;;;;;5045855;28;20574;-73
2023/08/29 01:02:53;;;;;;;4.28;2.50;;;13.40;99.90;;;;;;5045691;28;20520;-73
2023/08/29 01:05:20;;;;;;;3.03;1.85;;;13.30;99.90;;;;;;5026480;28;20075;-73
2023/08/29 01:07:53;;;;;;;3.92;1.80;;;13.30;99.90;;;;;;5044392;28;20087;-73
2023/08/29 01:11:01;;;;;;;3.10;1.70;;;13.30;99.90;;;;;;5045593;28;20122;-73
2023/08/29 01:14:00;;;;;;;2.35;1.60;;;13.30;99.90;;;;;;5015473;28;20053;-73
2023/08/29 01:16:32;;;;;;;2.53;1.73;;;13.30;99.90;;;;;;5022728;28;20088;-73
2023/08/29 01:19:06;;;;;;;3.13;1.77;;;13.30;99.90;;;;;;5039567;28;20045;-73
2023/08/29 01:22:12;;;;;;;2.60;1.03;;;13.30;99.90;;;;;;5042653;28;20083;-73
2023/08/29 01:24:50;;;;;;;3.92;1.67;;;13.20;99.90;;;;;;5048987;28;20127;-74
2023/08/29 01:27:17;;;;;;;2.53;1.50;;;13.20;99.90;;;;;;5048437;28;20056;-73
2023/08/29 01:29:46;;;;;;;2.58;1.63;;;13.20;99.90;;;;;;5060908;28;20500;-73
2023/08/29 01:32:13;;;;;;;2.15;1.88;;;13.20;99.90;;;;;;5063670;28;20040;-73
2023/08/29 01:34:39;;;;;;;1.95;1.60;;;13.20;99.90;;;;;;5058376;28;20044;-73
2023/08/29 01:37:05;;;;;;;3.15;1.20;;;13.20;99.90;;;;;;5045517;28;20037;-73
2023/08/29 01:39:30;;;;;;;2.72;1.75;;;13.20;99.90;;;;;;5044824;28;20048;-73
2023/08/29 01:41:56;;;;;;;3.30;1.95;;;13.20;99.90;;;;;;5056850;28;20731;-73
2023/08/29 01:44:21;;;;;;;3.63;1.60;;;13.20;99.90;;;;;;5055485;28;20509;-73
2023/08/29 01:46:47;;;;;;;3.38;1.45;;;13.10;99.90;;;;;;5052887;28;20051;-73
2023/08/29 01:49:13;;;;;;;2.85;1.67;;;13.10;99.90;;;;;;5054284;28;20490;-74
2023/08/29 01:51:38;;;;;;;2.25;1.35;;;13.10;99.90;;;;;;5064853;28;20045;-74
2023/08/29 01:54:04;;;;;;;2.03;1.45;;;13.10;99.90;;;;;;5048233;28;20055;-73
2023/08/29 01:56:32;;;;;;;2.42;1.60;;;13.10;99.90;;;;;;5059444;28;20040;-73
2023/08/29 01:58:59;;;;;;;2.38;1.33;;;13.10;99.90;;;;;;5045463;28;20059;-73
2023/08/29 02:01:25;;;;;;;3.08;1.33;;;13.10;99.90;;;;;;5044044;28;20045;-73
2023/08/29 02:03:53;;;;;;;1.73;1.63;;;13.10;99.90;;;;;;5044622;28;20083;-73
2023/08/29 02:06:19;;;;;;;3.75;1.80;;;13.10;99.90;;;;;;5050363;28;20450;-73
2023/08/29 02:08:45;;;;;;;5.10;1.30;;;13.10;99.90;;;;;;5042680;28;20068;-73
2023/08/29 02:11:11;;;;;;;1.60;1.50;;;13.10;99.90;;;;;;5050192;28;20051;-73
2023/08/29 02:13:36;;;;;;;1.95;1.15;;;13.10;99.90;;;;;;5051454;28;20068;-73
2023/08/29 02:16:02;;;;;;;1.35;1.20;;;13.00;99.90;;;;;;5046494;28;20488;-73
2023/08/29 02:18:29;;;;;;;2.80;1.50;;;13.00;99.90;;;;;;5044893;28;20493;-73
2023/08/29 02:20:54;;;;;;;2.13;1.20;;;13.00;99.90;;;;;;5054638;28;20144;-73
2023/08/29 02:23:20;;;;;;;1.73;1.38;;;13.00;99.90;;;;;;5047534;28;20408;-73
2023/08/29 02:25:46;;;;;;;1.48;1.10;;;13.00;99.90;;;;;;5046198;28;20037;-73
2023/08/29 02:28:12;;;;;;;3.30;1.70;;;13.00;99.90;;;;;;5041549;28;20538;-73
2023/08/29 02:30:38;;;;;;;3.05;1.63;;;13.00;99.90;;;;;;5058265;28;20033;-74
2023/08/29 02:33:03;;;;;;;1.17;1.08;;;13.00;99.90;;;;;;5046488;28;20557;-73
2023/08/29 02:35:29;;;;;;;1.95;1.40;;;12.90;99.90;;;;;;5053444;28;20090;-73
2023/08/29 02:37:54;;;;;;;2.55;1.60;;;12.90;99.90;;;;;;5043945;28;20052;-72
2023/08/29 02:40:20;;;;;;;2.53;1.15;;;12.90;99.90;;;;;;5042002;28;20515;-73
2023/08/29 02:42:46;;;;;;;2.80;1.58;;;12.80;99.90;;;;;;5048204;28;20131;-72
2023/08/29 02:45:11;;;;;;;1.50;1.08;;;12.80;99.90;;;;;;5045437;28;20045;-73
2023/08/29 02:47:37;;;;;;;1.80;1.25;;;12.80;99.90;;;;;;5043351;28;20483;-73
2023/08/29 02:50:06;;;;;;;2.97;1.20;;;12.80;99.90;;;;;;5043958;28;20041;-72
2023/08/29 02:52:32;;;;;;;1.60;1.30;;;12.80;99.90;;;;;;5045659;28;20550;-72
2023/08/29 02:54:58;;;;;;;2.35;0.80;;;12.80;99.90;;;;;;5046574;28;20127;-72
2023/08/29 02:57:24;;;;;;;1.50;0.80;;;12.80;99.90;;;;;;5042392;28;20047;-73
2023/08/29 02:59:49;;;;;;;1.05;0.80;;;12.80;99.90;;;;;;5043647;28;20461;-73
2023/08/29 03:02:15;;;;;;;2.05;1.17;;;12.70;99.90;;;;;;5043127;28;20075;-73
2023/08/29 03:04:42;;;;;;;1.35;1.05;;;12.70;99.90;;;;;;5043628;28;20068;-74
2023/08/29 03:07:07;;;;;;;1.15;0.90;;;12.70;99.90;;;;;;5042510;28;20123;-74
2023/08/29 03:09:33;;;;;;;1.27;1.10;;;12.60;99.90;;;;;;5043004;28;20124;-73
2023/08/29 03:11:59;;;;;;;1.20;0.90;;;12.60;99.90;;;;;;5044589;28;20097;-73
2023/08/29 03:14:26;;;;;;;1.95;1.20;;;12.60;99.90;;;;;;5042415;28;20061;-73
2023/08/29 03:16:52;;;;;;;2.15;0.90;;;12.60;99.90;;;;;;5042995;28;20049;-73
2023/08/29 03:19:18;;;;;;;2.90;1.17;;;12.60;99.90;;;;;;5043895;28;20402;-73
2023/08/29 03:21:43;;;;;;;1.20;1.00;;;12.50;99.90;;;;;;5042677;28;20048;-73
2023/08/29 03:24:09;;;;;;;1.63;0.80;;;12.60;99.90;;;;;;5043757;28;20047;-73
2023/08/29 03:26:35;;;;;;;3.42;2.17;;;12.50;99.90;;;;;;5045555;28;20045;-73
2023/08/29 03:29:00;;;;;;;2.40;0.90;;;12.50;99.90;;;;;;5042749;28;20040;-73
2023/08/29 03:31:26;;;;;;;1.65;1.23;;;12.50;99.90;;;;;;5043634;28;20049;-73
2023/08/29 03:33:51;;;;;;;2.85;1.17;;;12.50;99.90;;;;;;5028791;28;20045;-72
2023/08/29 03:36:17;;;;;;;3.17;1.25;;;12.40;99.90;;;;;;5042585;28;20089;-72
2023/08/29 03:38:43;;;;;;;1.65;1.23;;;12.50;99.90;;;;;;5042699;28;20041;-73
2023/08/29 03:41:09;;;;;;;3.75;1.10;;;12.50;99.90;;;;;;5031173;28;20648;-74
2023/08/29 03:43:36;;;;;;;2.13;1.15;;;12.40;99.90;;;;;;5050012;28;20473;-72
2023/08/29 03:46:08;;;;;;;1.63;1.10;;;12.40;99.90;;;;;;5043861;28;20037;-73
2023/08/29 03:48:35;;;;;;;1.88;1.17;;;12.40;99.90;;;;;;5043149;28;20052;-73
2023/08/29 03:51:05;;;;;;;1.38;0.93;;;12.40;99.90;;;;;;5043623;28;20044;-72
2023/08/29 03:53:35;;;;;;;1.92;1.00;;;12.40;99.90;;;;;;5053817;28;20064;-73
2023/08/29 03:56:03;;;;;;;2.53;1.23;;;12.40;99.90;;;;;;5042662;28;20041;-73
2023/08/29 03:58:29;;;;;;;1.77;1.20;;;12.50;99.90;;;;;;5025469;28;20088;-73
2023/08/29 04:00:56;;;;;;;2.35;1.40;;;12.50;99.90;;;;;;5044155;28;20083;-73
2023/08/29 04:03:22;;;;;;;1.48;1.15;;;12.50;99.90;;;;;;5046663;28;20045;-73
2023/08/29 04:05:47;;;;;;;3.28;1.25;;;12.40;99.90;;;;;;5044613;28;20135;-73
2023/08/29 04:08:13;;;;;;;1.77;1.27;;;12.50;99.90;;;;;;5042806;28;20215;-73
2023/08/29 04:10:40;;;;;;;2.00;1.27;;;12.50;99.90;;;;;;5044774;28;20041;-73
2023/08/29 04:13:06;;;;;;;1.88;1.30;;;12.50;99.90;;;;;;5043500;28;20060;-73
2023/08/29 04:15:35;;;;;;;1.90;1.33;;;12.40;99.90;;;;;;5042608;28;20045;-73
2023/08/29 04:18:02;;;;;;;1.90;1.40;;;12.40;99.90;;;;;;5042110;28;20399;-73
2023/08/29 04:20:28;;;;;;;1.38;0.93;;;12.50;99.90;;;;;;5043241;28;20055;-73
2023/08/29 04:22:55;;;;;;;1.85;1.40;;;12.50;99.90;;;;;;5051681;28;20119;-73
2023/08/29 04:25:21;;;;;;;2.10;1.30;;;12.40;99.90;;;;;;5061652;28;20044;-73
2023/08/29 04:27:48;;;;;;;4.30;1.67;;;12.40;99.90;;;;;;5062349;28;20051;-73
2023/08/29 04:30:14;;;;;;;1.70;1.15;;;12.40;99.90;;;;;;5066919;28;20040;-73
2023/08/29 04:32:40;;;;;;;2.70;1.25;;;12.40;99.90;;;;;;5064401;28;20136;-73
2023/08/29 04:35:06;;;;;;;1.60;1.30;;;12.40;99.90;;;;;;5067079;28;20123;-73
2023/08/29 04:37:35;;;;;;;1.98;1.27;;;12.40;99.90;;;;;;5049600;28;20044;-73
2023/08/29 04:40:10;;;;;;;2.00;1.40;;;12.40;99.90;;;;;;5057075;28;20386;-73
2023/08/29 04:42:37;;;;;;;2.22;1.45;;;12.40;99.90;;;;;;5055917;28;20059;-73
2023/08/29 04:45:07;;;;;;;2.35;1.40;;;12.40;99.90;;;;;;5061833;28;20076;-72
2023/08/29 04:47:34;;;;;;;1.70;1.42;;;12.40;99.90;;;;;;5046131;28;20045;-73
2023/08/29 04:50:00;;;;;;;1.27;1.17;;;12.40;99.90;;;;;;5049803;28;20036;-73
2023/08/29 04:52:26;;;;;;;2.40;1.40;;;12.40;99.90;;;;;;5056048;28;20044;-73
2023/08/29 04:54:53;;;;;;;1.77;1.20;;;12.50;99.90;;;;;;5046800;28;20772;-73
2023/08/29 04:57:20;;;;;;;3.97;1.50;;;12.40;99.90;;;;;;5045508;28;20037;-73
2023/08/29 04:59:46;;;;;;;2.08;1.27;;;12.50;99.90;;;;;;5053473;28;20052;-73
2023/08/29 05:02:12;;;;;;;2.25;1.48;;;12.40;99.90;;;;;;5028326;28;20112;-73
2023/08/29 05:04:38;;;;;;;1.90;1.60;;;12.50;99.90;;;;;;5046536;28;20044;-73
2023/08/29 05:07:03;;;;;;;3.50;1.67;;;12.50;99.90;;;;;;5045758;28;20148;-73
2023/08/29 05:09:29;;;;;;;2.00;1.33;;;12.50;99.90;;;;;;5046166;28;20534;-73
2023/08/29 05:11:55;;;;;;;2.10;1.10;;;12.50;99.90;;;;;;5045227;28;20120;-73
2023/08/29 05:14:20;;;;;;;8.27;1.38;;;12.50;99.90;;;;;;5046038;28;20126;-72
2023/08/29 05:16:46;;;;;;;2.67;1.40;;;12.60;99.90;;;;;;5044966;28;20078;-74
2023/08/29 05:19:12;;;;;;;3.35;1.30;;;12.60;99.90;;;;;;5044752;28;20069;-73
2023/08/29 05:21:37;;;;;;;5.70;2.17;;;12.60;99.90;;;;;;5058323;28;20068;-74
2023/08/29 05:24:04;;;;;;;2.00;1.60;;;12.60;99.90;;;;;;5047709;28;20071;-73
2023/08/29 05:26:29;;;;;;;2.88;1.52;;;12.60;99.90;;;;;;5044358;28;20109;-73
2023/08/29 05:28:55;;;;;;;2.38;1.52;;;12.70;99.90;;;;;;5026369;28;20499;-73
2023/08/29 05:31:20;;;;;;;1.98;1.70;;;12.70;99.90;;;;;;5032905;28;20053;-72
2023/08/29 05:33:46;;;;;;;2.85;2.58;;;12.70;99.90;;;;;;5044917;28;20171;-73
2023/08/29 05:36:12;;;;;;;3.97;2.00;;;12.80;99.90;;;;;;5055534;28;20044;-73
2023/08/29 05:38:37;;;;;;;5.00;1.30;;;12.80;99.90;;;;;;5053517;28;20429;-74
2023/08/29 05:41:03;;;;;;;3.95;1.80;;;12.80;99.90;;;;;;5016146;28;20049;-72
2023/08/29 05:43:29;;;;;;;1.67;1.48;;;12.90;99.90;;;;;;5038669;28;20426;-73
2023/08/29 05:45:55;;;;;;;1.83;1.60;;;12.90;99.90;;;;;;5043979;28;20143;-75
2023/08/29 05:48:21;;;;;;;2.63;1.45;;;13.00;99.90;;;;;;5042859;28;20545;-73
2023/08/29 05:50:53;;;;;;;3.08;1.77;;;13.00;99.90;;;;;;5051249;28;20041;-73
2023/08/29 05:53:19;;;;;;;2.95;1.70;;;13.10;99.90;;;;;;5049669;28;20166;-71
2023/08/29 05:55:45;;;;;;;3.03;1.60;;;13.10;99.90;;;;;;5036798;28;20215;-72
2023/08/29 05:58:11;;;;;;;1.52;1.42;;;13.20;99.90;;;;;;5044415;28;20411;-71
2023/08/29 06:00:37;;;;;;;2.17;1.67;;;13.20;99.90;;;;;;5044361;28;20037;-71
2023/08/29 06:03:04;;;;;;;2.55;1.52;;;13.30;99.90;;;;;;5044867;28;20041;-72
2023/08/29 06:05:31;;;;;;;3.63;1.55;;;13.40;99.90;;;;;;5041118;28;20131;-72
2023/08/29 06:08:00;;;;;;;3.70;1.60;;;13.40;99.90;;;;;;5044549;28;20067;-71
2023/08/29 06:10:26;;;;;;;2.50;1.63;;;13.50;99.90;;;;;;5043825;28;20036;-72
2023/08/29 06:12:52;;;;;;;1.85;1.50;;;13.50;99.90;;;;;;5058004;28;20552;-73
2023/08/29 06:15:17;;;;;;;2.08;1.48;;;13.60;99.90;;;;;;5041363;28;20628;-72
2023/08/29 06:17:43;;;;;;;4.32;2.58;;;13.60;99.90;;;;;;5042283;28;20251;-73
2023/08/29 06:20:11;;;;;;;3.90;1.70;;;13.70;99.90;;;;;;5042539;28;20050;-73
2023/08/29 06:22:37;;;;;;;3.03;1.77;;;13.70;99.90;;;;;;5047178;28;20059;-73
2023/08/29 06:25:04;;;;;;;3.20;1.90;;;13.80;99.90;;;;;;5042878;28;20170;-73
2023/08/29 06:27:30;;;;;;;3.38;1.92;;;13.80;99.90;;;;;;5041109;28;20114;-73
2023/08/29 06:29:55;;;;;;;2.75;1.60;;;13.80;99.90;;;;;;5039074;28;20045;-74
2023/08/29 06:32:21;;;;;;;3.47;1.65;;;13.80;99.90;;;;;;5030209;28;20090;-74
2023/08/29 06:34:47;;;;;;;2.42;1.58;;;13.80;99.90;;;;;;5043749;28;20499;-74
2023/08/29 06:37:13;;;;;;;3.92;2.10;;;13.90;99.90;;;;;;5042308;28;20045;-74
2023/08/29 06:39:39;;;;;;;2.35;1.48;;;13.90;99.90;;;;;;5042652;28;20586;-74
2023/08/29 06:42:05;;;;;;;1.50;1.40;;;14.00;99.90;;;;;;5015171;28;20047;-75
2023/08/29 06:44:30;;;;;;;1.60;1.33;;;14.00;99.90;;;;;;5043241;28;20041;-74
2023/08/29 06:46:56;;;;;;;2.78;1.48;;;14.10;99.90;;;;;;5044887;28;20115;-73
2023/08/29 06:49:22;;;;;;;2.50;1.88;;;14.10;99.90;;;;;;5043182;28;20116;-73
2023/08/29 06:51:49;;;;;;;2.03;1.50;;;14.10;99.90;;;;;;5026666;28;20531;-73
2023/08/29 06:54:15;;;;;;;2.60;1.80;;;14.10;99.90;;;;;;5043232;28;20053;-73
2023/08/29 06:56:41;;;;;;;2.33;1.38;;;14.20;99.90;;;;;;5042077;28;20083;-73
2023/08/29 06:59:06;;;;;;;2.30;1.60;;;14.20;99.90;;;;;;5043883;28;20114;-73
2023/08/29 07:01:32;;;;;;;3.05;1.80;;;14.30;99.90;;;;;;5038815;28;20044;-73
2023/08/29 07:03:58;;;;;;;1.92;1.25;;;14.30;99.90;;;;;;5043780;28;20045;-74
2023/08/29 07:06:24;;;;;;;1.75;1.60;;;14.30;99.90;;;;;;5041116;28;20357;-74
2023/08/29 07:08:49;;;;;;;1.65;1.48;;;14.30;99.90;;;;;;5043378;28;20394;-74
2023/08/29 07:11:15;;;;;;;2.33;1.63;;;14.30;99.90;;;;;;5024851;28;20041;-74
2023/08/29 07:13:41;;;;;;;4.28;1.80;;;14.40;99.90;;;;;;5025423;28;20071;-74
2023/08/29 07:16:06;;;;;;;2.28;1.45;;;14.40;99.90;;;;;;5042897;28;20156;-74
2023/08/29 07:18:32;;;;;;;2.05;1.10;;;14.50;99.90;;;;;;5043091;28;20488;-73
2023/08/29 07:20:59;;;;;;;3.10;1.40;;;14.50;99.90;;;;;;5025878;28;20048;-74
2023/08/29 07:23:25;;;;;;;1.02;0.90;;;14.50;99.90;;;;;;5042268;28;20043;-74
2023/08/29 07:25:51;;;;;;;2.15;1.35;;;14.60;99.90;;;;;;5042546;28;20045;-74
2023/08/29 07:28:16;;;;;;;2.78;1.10;;;14.60;99.90;;;;;;5025085;28;20048;-74
2023/08/29 07:30:45;;;;;;;1.95;1.10;;;14.70;99.90;;;;;;5041854;28;20045;-74
2023/08/29 07:33:11;;;;;;;2.95;1.20;;;14.70;99.90;;;;;;5041946;28;20127;-73
2023/08/29 07:35:38;;;;;;;3.75;1.40;;;14.80;99.90;;;;;;5042542;28;20037;-74
2023/08/29 07:38:04;;;;;;;3.08;1.35;;;14.80;99.90;;;;;;5025691;28;20514;-74
2023/08/29 07:40:29;;;;;;;4.38;1.55;;;14.80;99.90;;;;;;5042460;28;20044;-74
2023/08/29 07:42:55;;;;;;;2.20;1.30;;;14.90;99.90;;;;;;5042035;28;20045;-75
2023/08/29 07:45:21;;;;;;;2.05;1.20;;;14.90;99.90;;;;;;5042404;28;20063;-74
2023/08/29 07:47:47;;;;;;;3.50;1.17;;;15.00;99.90;;;;;;5041859;28;20408;-73
2023/08/29 07:50:13;;;;;;;2.15;1.27;;;15.00;99.90;;;;;;5025515;28;20503;-74
2023/08/29 07:52:38;;;;;;;3.17;1.60;;;15.10;99.90;;;;;;5041484;28;20048;-74
2023/08/29 07:55:07;;;;;;;2.95;1.35;;;15.20;99.90;;;;;;5025667;28;20045;-74
2023/08/29 07:57:33;;;;;;;5.20;1.40;;;15.20;99.90;;;;;;5043448;28;20403;-74
2023/08/29 07:59:59;;;;;;;2.08;1.42;;;15.30;99.90;;;;;;5024856;28;20226;-73
2023/08/29 08:02:25;;;;;;;1.58;1.10;;;15.40;99.90;;;;;;5041972;28;20453;-74
2023/08/29 08:04:50;;;;;;;2.08;1.33;;;15.40;99.90;;;;;;5046855;28;20120;-74
2023/08/29 08:07:16;;;;;;;2.20;1.33;;;15.50;99.90;;;;;;5039789;28;20047;-73
2023/08/29 08:09:42;;;;;;;1.23;1.13;;;15.50;99.90;;;;;;5045559;28;20043;-74
2023/08/29 08:12:07;;;;;;;1.48;1.20;;;15.70;99.90;;;;;;5045973;28;20045;-73
2023/08/29 08:14:33;;;;;;;1.95;1.40;;;15.70;99.90;;;;;;5028171;28;20064;-73
2023/08/29 08:16:59;;;;;;;1.27;1.10;;;15.80;99.90;;;;;;5039555;28;20479;-75
2023/08/29 08:19:24;;;;;;;2.10;1.20;;;15.80;99.90;;;;;;5045740;28;20240;-73
2023/08/29 08:21:50;;;;;;;3.35;2.70;;;15.90;99.90;;;;;;5045827;28;20124;-74
2023/08/29 08:24:16;;;;;;;2.25;1.38;;;15.90;99.90;;;;;;5045563;28;20514;-75
2023/08/29 08:26:43;;;;;;;2.35;2.10;;;15.90;99.90;;;;;;5046539;28;20045;-75
2023/08/29 08:29:09;;;;;;;2.17;1.52;;;16.00;99.90;;;;;;5029220;28;20118;-75
2023/08/29 08:31:34;;;;;;;2.03;1.52;;;16.00;99.90;;;;;;5045928;28;20081;-75
2023/08/29 08:34:00;;;;;;;3.65;1.77;;;16.10;99.90;;;;;;5047072;28;20033;-75
2023/08/29 08:36:26;;;;;;;2.55;1.40;;;16.10;99.90;;;;;;5045320;28;20125;-75
2023/08/29 08:38:51;;;;;;;2.72;1.25;;;16.20;99.90;;;;;;5045791;28;20080;-75
2023/08/29 08:41:18;;;;;;;2.13;1.70;;;16.20;99.90;;;;;;5043641;28;20409;-75
2023/08/29 08:43:44;;;;;;;3.08;1.60;;;16.30;99.90;;;;;;5044905;28;20124;-75
2023/08/29 08:46:14;;;;;;;2.80;1.60;;;16.30;99.90;;;;;;5045589;28;20215;-75
2023/08/29 08:48:40;;;;;;;2.53;1.70;;;16.30;99.90;;;;;;5045610;28;20045;-76
2023/08/29 08:51:08;;;;;;;2.92;1.40;;;16.40;99.90;;;;;;5046964;28;20133;-76
2023/08/29 08:53:36;;;;;;;2.40;1.58;;;16.40;99.90;;;;;;5030565;28;20046;-76
2023/08/29 08:56:02;;;;;;;2.40;1.38;;;16.50;99.90;;;;;;5039538;28;20055;-76
2023/08/29 08:58:28;;;;;;;3.45;1.50;;;16.50;99.90;;;;;;5045759;28;20049;-75
2023/08/29 09:00:55;;;;;;;2.20;1.92;;;16.50;99.90;;;;;;5045545;28;20113;-76
2023/08/29 09:03:20;;;;;;;2.05;1.27;;;16.50;99.90;;;;;;5045551;28;20064;-77
2023/08/29 09:05:46;;;;;;;1.13;0.95;;;16.60;99.90;;;;;;5045796;28;20395;-76
2023/08/29 09:08:12;;;;;;;1.35;1.05;;;16.60;99.90;;;;;;5028092;28;20041;-75
2023/08/29 09:10:40;;;;;;;2.58;1.25;;;16.70;99.90;;;;;;5044675;28;20045;-75
2023/08/29 09:13:06;;;;;;;1.92;1.00;;;16.70;99.90;;;;;;5046739;28;20061;-75
2023/08/29 09:15:34;;;;;;;0.70;0.70;;;16.70;99.90;;;;;;5044011;28;20490;-75
2023/08/29 09:18:00;;;;;;;1.40;1.15;;;16.80;99.90;;;;;;5028405;28;20040;-75
2023/08/29 09:20:29;;;;;;;1.70;1.23;;;16.80;99.90;;;;;;5044444;28;20457;-75
2023/08/29 09:22:55;;;;;;;1.17;1.08;;;16.80;99.90;;;;;;5043575;28;20069;-75
2023/08/29 09:25:24;;;;;;;2.80;1.20;;;16.90;99.90;;;;;;5043790;28;20052;-75
2023/08/29 09:27:49;;;;;;;2.03;1.55;;;16.90;99.90;;;;;;5041691;28;20052;-75
2023/08/29 09:30:17;;;;;;;1.30;1.20;;;17.00;99.90;;;;;;5038325;28;20041;-76
2023/08/29 09:32:44;;;;;;;1.65;1.10;;;17.00;99.90;;;;;;5034153;28;20049;-76
2023/08/29 09:35:18;;;;;;;2.22;1.08;;;17.00;99.90;;;;;;5027649;28;20045;-76
2023/08/29 09:37:52;;;;;;;2.38;1.20;;;17.10;99.90;;;;;;5044908;28;20479;-76
2023/08/29 09:40:19;;;;;;;2.28;1.20;;;17.10;99.90;;;;;;5029966;28;20045;-76
2023/08/29 09:42:55;;;;;;;1.10;1.10;;;17.20;99.90;;;;;;5031408;28;20044;-76
2023/08/29 09:45:21;;;;;;;3.60;1.02;;;17.20;99.90;;;;;;5045059;28;20099;-76
2023/08/29 09:47:47;;;;;;;1.30;1.20;;;17.30;99.90;;;;;;5045136;28;20099;-77
2023/08/29 09:50:12;;;;;;;1.75;1.30;;;17.30;99.90;;;;;;5044420;28;20500;-76
2023/08/29 09:52:40;;;;;;;1.05;0.95;;;17.40;99.90;;;;;;5046001;28;20115;-75
2023/08/29 09:55:08;;;;;;;1.80;1.30;;;17.40;99.90;;;;;;5045918;28;20045;-76
2023/08/29 09:57:35;;;;;;;1.70;1.20;;;17.50;99.90;;;;;;5045731;28;20036;-76
2023/08/29 10:00:04;;;;;;;2.67;1.27;;;17.50;99.90;;;;;;5045837;28;20037;-76
2023/08/29 10:02:30;;;;;;;2.67;1.55;;;17.50;99.90;;;;;;5042773;28;20487;-77
2023/08/29 10:05:05;;;;;;;1.92;1.15;;;17.60;99.90;;;;;;5033649;28;20366;-77
2023/08/29 10:07:40;;;;;;;1.15;1.10;;;17.60;99.90;;;;;;5039890;28;20349;-77
2023/08/29 10:10:07;;;;;;;2.75;1.00;;;17.60;99.90;;;;;;5043464;28;20041;-77
2023/08/29 10:12:34;;;;;;;1.20;1.10;;;17.60;99.90;;;;;;5043860;28;20052;-77
2023/08/29 10:15:01;;;;;;;2.60;1.05;;;17.60;99.90;;;;;;5042447;28;20045;-77
2023/08/29 10:17:26;;;;;;;2.80;1.27;;;17.70;99.90;;;;;;5043356;28;20049;-77
2023/08/29 10:19:54;;;;;;;1.33;1.00;;;17.70;99.90;;;;;;5026390;28;20045;-76
2023/08/29 10:22:21;;;;;;;2.47;1.48;;;17.70;99.90;;;;;;5021926;28;20505;-77
2023/08/29 10:24:50;;;;;;;1.35;1.10;;;17.80;99.90;;;;;;5042193;28;20487;-77
2023/08/29 10:27:16;;;;;;;1.02;0.95;;;17.80;99.90;;;;;;5039153;28;20033;-77
2023/08/29 10:29:41;;;;;;;1.85;1.23;;;17.80;99.90;;;;;;5044273;28;20055;-77
2023/08/29 10:32:07;;;;;;;0.82;0.82;;;17.80;99.90;;;;;;5043856;28;20611;-77
2023/08/29 10:34:34;;;;;;;1.00;0.88;;;17.80;99.90;;;;;;5038827;28;20132;-77
2023/08/29 10:37:00;;;;;;;2.65;1.15;;;17.80;99.90;;;;;;5008452;28;20454;-77
2023/08/29 10:39:27;;;;;;;1.30;1.20;;;17.90;99.90;;;;;;5036982;28;20033;-77
2023/08/29 10:41:55;;;;;;;2.35;1.10;;;17.90;99.90;;;;;;5039584;28;20177;-81
2023/08/29 10:44:42;;;;;;;1.20;1.10;;;17.80;99.90;;;;;;5036640;28;20171;-78
2023/08/29 10:47:23;;;;;;;1.48;1.23;;;17.90;99.90;;;;;;5044111;28;20072;-77
2023/08/29 10:50:05;;;;;;;1.65;1.00;;;17.90;99.90;;;;;;5042661;28;20459;-78
2023/08/29 10:52:41;;;;;;;1.58;1.15;;;18.00;99.90;;;;;;5036349;28;20049;-78
2023/08/29 10:55:25;;;;;;;1.15;1.02;;;18.00;99.90;;;;;;5041014;28;20068;-78
2023/08/29 10:57:51;;;;;;;1.40;1.10;;;18.00;99.90;;;;;;5028347;28;20068;-78
2023/08/29 11:00:40;;;;;;;1.77;1.45;;;18.10;99.90;;;;;;5046896;28;20041;-77
2023/08/29 11:03:06;;;;;;;2.05;1.40;;;18.10;99.90;;;;;;5043650;28;20052;-78
2023/08/29 11:05:33;;;;;;;1.45;0.95;;;18.10;99.90;;;;;;5043134;28;20044;-78
2023/08/29 11:08:31;;;;;;;1.63;1.52;;;18.20;99.90;;;;;;5029338;28;20040;-78
2023/08/29 11:11:16;;;;;;;0.98;0.88;;;18.20;99.90;;;;;;5010908;28;20107;-78
2023/08/29 11:14:04;;;;;;;0.80;0.80;;;18.20;99.90;;;;;;5023315;28;20060;-79
2023/08/29 11:16:34;;;;;;;1.17;1.02;;;18.20;99.90;;;;;;5024595;28;20081;-77
2023/08/29 11:19:09;;;;;;;1.58;1.00;;;18.30;99.90;;;;;;5038638;28;20041;-78
2023/08/29 11:21:35;;;;;;;1.50;0.90;;;18.30;99.90;;;;;;5026276;28;20041;-78
2023/08/29 11:24:05;;;;;;;2.05;0.93;;;18.40;99.90;;;;;;5038511;28;20045;-78
2023/08/29 11:26:33;;;;;;;1.50;1.10;;;18.40;99.90;;;;;;5029559;28;20029;-78
2023/08/29 11:29:00;;;;;;;1.15;0.85;;;18.40;99.90;;;;;;5042527;28;20252;-77
2023/08/29 11:31:25;;;;;;;2.00;1.08;;;18.40;99.90;;;;;;5029762;28;20088;-79
2023/08/29 11:33:52;;;;;;;1.17;1.02;;;18.50;99.90;;;;;;5040839;28;20037;-78
2023/08/29 11:36:18;;;;;;;2.30;1.05;;;18.50;99.90;;;;;;5038220;28;20052;-80
2023/08/29 11:38:44;;;;;;;1.33;1.13;;;18.50;99.90;;;;;;5040284;28;20037;-77
2023/08/29 11:41:10;;;;;;;1.23;0.93;;;18.40;99.90;;;;;;5033972;28;20124;-79
2023/08/29 11:43:37;;;;;;;2.78;2.10;;;18.40;99.90;;;;;;5023525;28;20111;-79
2023/08/29 11:46:04;;;;;;;4.97;1.20;;;18.40;99.90;;;;;;5037295;28;20041;-77
2023/08/29 11:48:34;;;;;;;2.05;1.20;;;18.40;99.90;;;;;;5034046;28;20119;-78
2023/08/29 11:51:04;;;;;;;1.77;1.17;;;18.40;99.90;;;;;;5040730;28;20045;-72
2023/08/29 11:53:33;;;;;;;3.00;1.48;;;18.40;99.90;;;;;;5039480;28;20499;-73
2023/08/29 11:56:01;;;;;;;1.40;1.10;;;18.40;99.90;;;;;;5040976;28;20492;-73
2023/08/29 11:58:28;;;;;;;2.42;1.50;;;18.40;99.90;;;;;;5041568;28;20491;-72
2023/08/29 12:00:54;;;;;;;2.08;1.33;;;18.50;99.90;;;;;;5042245;28;20068;-72
2023/08/29 12:03:25;;;;;;;2.80;1.20;;;18.50;99.90;;;;;;5025525;28;20037;-73
2023/08/29 12:05:54;;;;;;;1.40;1.30;;;18.50;99.90;;;;;;5025756;28;20072;-72
2023/08/29 12:08:40;;;;;;;1.55;1.10;;;18.50;99.90;;;;;;5041733;28;20044;-73
2023/08/29 12:11:06;;;;;;;2.10;1.63;;;18.60;99.90;;;;;;5005244;28;20546;-72
2023/08/29 12:13:36;;;;;;;1.83;1.52;;;18.60;99.90;;;;;;5037730;28;20099;-72
2023/08/29 12:16:02;;;;;;;2.92;1.30;;;18.60;99.90;;;;;;5043113;28;20037;-72
2023/08/29 12:18:29;;;;;;;1.85;1.38;;;18.60;99.90;;;;;;5032695;28;20045;-73
2023/08/29 12:21:14;;;;;;;1.80;1.40;;;18.60;99.90;;;;;;5033242;28;20044;-73
2023/08/29 12:23:42;;;;;;;1.20;1.08;;;18.60;99.90;;;;;;5023947;28;20041;-73
2023/08/29 12:26:08;;;;;;;1.88;1.63;;;18.70;99.90;;;;;;5037293;28;20041;-74
2023/08/29 12:28:33;;;;;;;1.55;1.45;;;18.60;99.90;;;;;;5023770;28;20245;-73
2023/08/29 12:30:59;;;;;;;1.75;1.30;;;18.70;99.90;;;;;;5022040;28;20369;-74
2023/08/29 12:33:25;;;;;;;1.95;1.38;;;18.70;99.90;;;;;;5039067;28;20436;-73
2023/08/29 12:35:50;;;;;;;3.00;1.42;;;18.70;99.90;;;;;;5041199;28;20084;-72
2023/08/29 12:38:16;;;;;;;2.35;1.80;;;18.70;99.90;;;;;;5024111;28;20045;-73
2023/08/29 12:40:44;;;;;;;3.13;2.03;;;18.70;99.90;;;;;;5040416;28;20045;-73
2023/08/29 12:43:11;;;;;;;3.28;1.58;;;18.80;99.90;;;;;;5040403;28;20049;-73
2023/08/29 12:45:36;;;;;;;1.90;1.67;;;18.80;99.90;;;;;;5040242;28;20060;-72
2023/08/29 12:48:03;;;;;;;2.00;1.50;;;18.80;99.90;;;;;;5017433;28;20037;-72
2023/08/29 12:50:30;;;;;;;2.75;1.65;;;18.90;99.90;;;;;;5038223;28;20150;-72